createdAt,value
2022-11-13T00:00:10.490Z,0.00
2022-11-13T00:01:10.531Z,0.00
2022-11-13T00:02:10.535Z,0.00
2022-11-13T00:03:10.462Z,0.00
2022-11-13T00:04:11.462Z,0.00
2022-11-13T00:05:10.458Z,0.00
2022-11-13T00:06:10.440Z,0.00
2022-11-13T00:07:10.549Z,0.00
2022-11-13T00:08:11.421Z,0.00
2022-11-13T00:09:10.423Z,0.00
2022-11-13T00:10:10.421Z,0.00
2022-11-13T00:11:10.402Z,0.00
2022-11-13T00:12:10.435Z,0.00
2022-11-13T00:13:10.390Z,0.00
2022-11-13T00:14:10.450Z,0.00
2022-11-13T00:15:10.369Z,0.00
2022-11-13T00:16:11.364Z,0.00
2022-11-13T00:17:10.379Z,0.00
2022-11-13T00:18:10.379Z,0.00
2022-11-13T00:19:10.349Z,0.00
2022-11-13T00:20:10.329Z,0.00
2022-11-13T00:21:10.321Z,0.00
2022-11-13T00:22:10.314Z,0.00
2022-11-13T00:23:10.332Z,0.00
2022-11-13T00:24:10.302Z,0.00
2022-11-13T00:25:10.289Z,0.00
2022-11-13T00:26:10.313Z,0.00
2022-11-13T00:27:10.286Z,0.00
2022-11-13T00:28:10.301Z,0.00
2022-11-13T00:29:10.257Z,0.00
2022-11-13T00:30:13.688Z,0.00
2022-11-13T00:31:11.240Z,0.00
2022-11-13T00:32:10.243Z,0.00
2022-11-13T00:33:10.259Z,0.00
2022-11-13T00:34:33.231Z,0.00
2022-11-13T00:35:12.206Z,0.00
2022-11-13T00:36:10.214Z,0.00
2022-11-13T00:37:10.204Z,0.00
2022-11-13T00:38:10.224Z,0.00
2022-11-13T00:39:10.192Z,0.00
2022-11-13T00:40:10.168Z,0.00
2022-11-13T00:41:10.175Z,0.00
2022-11-13T00:42:10.150Z,0.00
2022-11-13T00:43:10.168Z,0.00
2022-11-13T00:44:10.149Z,0.00
2022-11-13T00:45:10.112Z,0.00
2022-11-13T00:46:11.192Z,0.00
2022-11-13T00:47:10.135Z,0.00
2022-11-13T00:48:10.139Z,0.00
2022-11-13T00:49:10.110Z,0.00
2022-11-13T00:50:10.082Z,0.00
2022-11-13T00:51:10.081Z,0.00
2022-11-13T00:52:10.070Z,0.00
2022-11-13T00:53:15.255Z,0.00
2022-11-13T00:54:12.058Z,0.00
2022-11-13T00:55:10.052Z,0.00
2022-11-13T00:56:10.039Z,0.00
2022-11-13T00:57:10.030Z,0.00
2022-11-13T00:58:10.052Z,0.00
2022-11-13T00:59:10.034Z,0.00
2022-11-13T01:00:10.014Z,0.00
2022-11-13T01:01:10.068Z,0.00
2022-11-13T01:02:10.068Z,0.00
2022-11-13T01:03:10.011Z,0.00
2022-11-13T01:04:09.975Z,0.00
2022-11-13T01:05:09.960Z,0.00
2022-11-13T01:06:10.964Z,0.00
2022-11-13T01:07:10.025Z,0.00
2022-11-13T01:08:09.976Z,0.00
2022-11-13T01:09:09.929Z,0.00
2022-11-13T01:10:09.938Z,0.00
2022-11-13T01:11:09.917Z,0.00
2022-11-13T01:12:09.918Z,0.00
2022-11-13T01:13:09.926Z,0.00
2022-11-13T01:14:09.894Z,0.00
2022-11-13T01:15:09.886Z,0.00
2022-11-13T01:16:09.883Z,0.00
2022-11-13T01:17:09.863Z,0.00
2022-11-13T01:18:09.957Z,0.00
2022-11-13T01:19:09.856Z,0.00
2022-11-13T01:20:09.838Z,0.00
2022-11-13T01:21:09.831Z,0.00
2022-11-13T01:22:09.843Z,0.00
2022-11-13T01:23:09.848Z,0.00
2022-11-13T01:24:09.811Z,0.00
2022-11-13T01:25:09.804Z,0.00
2022-11-13T01:26:09.794Z,0.00
2022-11-13T01:27:09.798Z,0.00
2022-11-13T01:28:09.813Z,0.00
2022-11-13T01:29:09.766Z,0.00
2022-11-13T01:30:09.766Z,0.00
2022-11-13T01:31:09.756Z,0.00
2022-11-13T01:32:09.770Z,0.00
2022-11-13T01:33:09.766Z,0.00
2022-11-13T01:34:09.800Z,0.00
2022-11-13T01:35:09.723Z,0.00
2022-11-13T01:36:09.712Z,0.00
2022-11-13T01:37:09.719Z,0.00
2022-11-13T01:38:09.728Z,0.00
2022-11-13T01:39:09.684Z,0.00
2022-11-13T01:40:09.676Z,0.00
2022-11-13T01:41:09.677Z,0.00
2022-11-13T01:42:09.662Z,0.00
2022-11-13T01:43:09.692Z,0.00
2022-11-13T01:44:09.647Z,0.00
2022-11-13T01:45:09.638Z,0.00
2022-11-13T01:46:09.635Z,0.00
2022-11-13T01:47:09.628Z,0.00
2022-11-13T01:48:09.640Z,0.00
2022-11-13T01:49:09.615Z,0.00
2022-11-13T01:50:09.680Z,0.00
2022-11-13T01:51:09.594Z,0.00
2022-11-13T01:52:09.597Z,0.00
2022-11-13T01:53:09.832Z,0.00
2022-11-13T01:54:09.564Z,0.00
2022-11-13T01:55:09.572Z,0.00
2022-11-13T01:56:09.558Z,0.00
2022-11-13T01:57:09.543Z,0.00
2022-11-13T01:58:09.564Z,0.00
2022-11-13T01:59:09.530Z,0.00
2022-11-13T02:00:09.533Z,0.00
2022-11-13T02:01:09.514Z,0.00
2022-11-13T02:02:09.570Z,0.00
2022-11-13T02:03:09.540Z,0.00
2022-11-13T02:04:09.492Z,0.00
2022-11-13T02:05:09.493Z,0.00
2022-11-13T02:06:09.543Z,0.00
2022-11-13T02:07:09.545Z,0.00
2022-11-13T02:08:09.484Z,0.00
2022-11-13T02:09:09.446Z,0.00
2022-11-13T02:10:09.437Z,0.00
2022-11-13T02:11:09.430Z,0.00
2022-11-13T02:12:09.436Z,0.00
2022-11-13T02:13:09.463Z,0.00
2022-11-13T02:14:09.404Z,0.00
2022-11-13T02:15:09.395Z,0.00
2022-11-13T02:16:09.384Z,0.00
2022-11-13T02:17:09.379Z,0.00
2022-11-13T02:18:09.400Z,0.00
2022-11-13T02:19:09.367Z,0.00
2022-11-13T02:20:09.350Z,0.00
2022-11-13T02:21:09.351Z,0.00
2022-11-13T02:22:09.402Z,0.00
2022-11-13T02:23:09.355Z,0.00
2022-11-13T02:24:09.320Z,0.00
2022-11-13T02:25:09.310Z,0.00
2022-11-13T02:26:09.305Z,0.00
2022-11-13T02:27:09.298Z,0.00
2022-11-13T02:28:09.323Z,0.00
2022-11-13T02:29:09.279Z,0.00
2022-11-13T02:30:12.797Z,0.00
2022-11-13T02:31:11.268Z,0.00
2022-11-13T02:32:09.284Z,0.00
2022-11-13T02:33:09.275Z,0.00
2022-11-13T02:34:09.242Z,0.00
2022-11-13T02:35:09.243Z,0.00
2022-11-13T02:36:09.243Z,0.00
2022-11-13T02:37:09.216Z,0.00
2022-11-13T02:38:09.309Z,0.00
2022-11-13T02:39:09.202Z,0.00
2022-11-13T02:40:09.198Z,0.00
2022-11-13T02:41:09.189Z,0.00
2022-11-13T02:42:09.177Z,0.00
2022-11-13T02:43:09.199Z,0.00
2022-11-13T02:44:09.157Z,0.00
2022-11-13T02:45:09.166Z,0.00
2022-11-13T02:46:09.151Z,0.00
2022-11-13T02:47:09.140Z,0.00
2022-11-13T02:48:09.148Z,0.00
2022-11-13T02:49:10.114Z,0.00
2022-11-13T02:50:09.110Z,0.00
2022-11-13T02:51:09.089Z,0.00
2022-11-13T02:52:10.097Z,0.00
2022-11-13T02:53:09.126Z,0.00
2022-11-13T02:54:11.772Z,0.00
2022-11-13T02:55:11.060Z,0.00
2022-11-13T02:56:09.057Z,0.00
2022-11-13T02:57:09.047Z,0.00
2022-11-13T02:58:09.072Z,0.00
2022-11-13T02:59:09.031Z,0.00
2022-11-13T03:00:13.606Z,0.00
2022-11-13T03:01:11.042Z,0.00
2022-11-13T03:02:09.047Z,0.00
2022-11-13T03:03:09.026Z,0.00
2022-11-13T03:04:08.991Z,0.00
2022-11-13T03:05:13.680Z,0.00
2022-11-13T03:06:10.963Z,0.00
2022-11-13T03:07:08.993Z,0.00
2022-11-13T03:08:08.990Z,0.00
2022-11-13T03:09:08.942Z,0.00
2022-11-13T03:10:09.002Z,0.00
2022-11-13T03:11:08.934Z,0.00
2022-11-13T03:12:08.918Z,0.00
2022-11-13T03:13:08.946Z,0.00
2022-11-13T03:14:08.898Z,0.00
2022-11-13T03:15:08.897Z,0.00
2022-11-13T03:16:08.896Z,0.00
2022-11-13T03:17:08.881Z,0.00
2022-11-13T03:18:08.912Z,0.00
2022-11-13T03:19:08.866Z,0.00
2022-11-13T03:20:08.860Z,0.00
2022-11-13T03:21:08.849Z,0.00
2022-11-13T03:22:08.846Z,0.00
2022-11-13T03:23:08.849Z,0.00
2022-11-13T03:24:08.856Z,0.00
2022-11-13T03:25:10.754Z,0.00
2022-11-13T03:26:09.874Z,0.00
2022-11-13T03:27:08.819Z,0.00
2022-11-13T03:28:08.794Z,0.00
2022-11-13T03:29:08.811Z,0.00
2022-11-13T03:30:08.772Z,0.00
2022-11-13T03:31:08.763Z,0.00
2022-11-13T03:32:08.751Z,0.00
2022-11-13T03:33:08.753Z,0.00
2022-11-13T03:34:08.772Z,0.00
2022-11-13T03:35:08.739Z,0.00
2022-11-13T03:36:08.745Z,0.00
2022-11-13T03:37:08.714Z,0.00
2022-11-13T03:38:08.710Z,0.00
2022-11-13T03:39:08.733Z,0.00
2022-11-13T03:40:08.699Z,0.00
2022-11-13T03:41:08.684Z,0.00
2022-11-13T03:42:08.747Z,0.00
2022-11-13T03:43:09.674Z,0.00
2022-11-13T03:44:08.681Z,0.00
2022-11-13T03:45:08.657Z,0.00
2022-11-13T03:46:08.672Z,0.00
2022-11-13T03:47:08.640Z,0.00
2022-11-13T03:48:08.644Z,0.00
2022-11-13T03:49:08.647Z,0.00
2022-11-13T03:50:08.614Z,0.00
2022-11-13T03:51:08.608Z,0.00
2022-11-13T03:52:08.591Z,0.00
2022-11-13T03:53:08.635Z,0.00
2022-11-13T03:54:08.584Z,0.00
2022-11-13T03:55:08.567Z,0.00
2022-11-13T03:56:08.559Z,0.00
2022-11-13T03:57:08.556Z,0.00
2022-11-13T03:58:08.647Z,0.00
2022-11-13T03:59:08.543Z,0.00
2022-11-13T04:00:08.528Z,0.00
2022-11-13T04:01:08.522Z,0.00
2022-11-13T04:02:08.595Z,0.00
2022-11-13T04:03:08.556Z,0.00
2022-11-13T04:04:08.503Z,0.00
2022-11-13T04:05:08.491Z,0.00
2022-11-13T04:06:08.578Z,0.00
2022-11-13T04:07:08.535Z,0.00
2022-11-13T04:08:08.491Z,0.00
2022-11-13T04:09:08.454Z,0.00
2022-11-13T04:10:08.447Z,0.00
2022-11-13T04:11:08.456Z,0.00
2022-11-13T04:12:08.434Z,0.00
2022-11-13T04:13:08.455Z,0.00
2022-11-13T04:14:08.487Z,0.00
2022-11-13T04:15:08.409Z,0.00
2022-11-13T04:16:08.399Z,0.00
2022-11-13T04:17:08.389Z,0.00
2022-11-13T04:18:08.422Z,0.00
2022-11-13T04:19:08.377Z,0.00
2022-11-13T04:20:08.365Z,0.00
2022-11-13T04:21:08.353Z,0.00
2022-11-13T04:22:08.353Z,0.00
2022-11-13T04:23:08.383Z,0.00
2022-11-13T04:24:08.349Z,0.00
2022-11-13T04:25:08.326Z,0.00
2022-11-13T04:26:08.329Z,0.00
2022-11-13T04:27:08.301Z,0.00
2022-11-13T04:28:09.343Z,0.00
2022-11-13T04:29:08.297Z,0.00
2022-11-13T04:30:08.362Z,0.00
2022-11-13T04:31:08.280Z,0.00
2022-11-13T04:32:08.266Z,0.00
2022-11-13T04:33:08.289Z,0.00
2022-11-13T04:34:08.249Z,0.00
2022-11-13T04:35:09.242Z,0.00
2022-11-13T04:36:08.259Z,0.00
2022-11-13T04:37:08.235Z,0.00
2022-11-13T04:38:08.243Z,0.00
2022-11-13T04:39:08.214Z,0.00
2022-11-13T04:40:08.205Z,0.00
2022-11-13T04:41:08.197Z,0.00
2022-11-13T04:42:08.185Z,0.00
2022-11-13T04:43:08.214Z,0.00
2022-11-13T04:44:08.182Z,0.00
2022-11-13T04:45:08.160Z,0.00
2022-11-13T04:46:08.239Z,0.00
2022-11-13T04:47:08.145Z,0.00
2022-11-13T04:48:08.141Z,0.00
2022-11-13T04:49:08.183Z,0.00
2022-11-13T04:50:08.119Z,0.00
2022-11-13T04:51:08.121Z,0.00
2022-11-13T04:52:08.108Z,0.00
2022-11-13T04:53:08.132Z,0.00
2022-11-13T04:54:08.095Z,0.00
2022-11-13T04:55:08.079Z,0.00
2022-11-13T04:56:08.076Z,0.00
2022-11-13T04:57:08.067Z,0.00
2022-11-13T04:58:08.096Z,0.00
2022-11-13T04:59:08.070Z,0.00
2022-11-13T05:00:08.047Z,0.00
2022-11-13T05:01:08.043Z,0.00
2022-11-13T05:02:08.168Z,0.00
2022-11-13T05:03:08.049Z,0.00
2022-11-13T05:04:08.010Z,0.00
2022-11-13T05:05:08.001Z,0.00
2022-11-13T05:06:07.993Z,0.00
2022-11-13T05:07:08.060Z,0.00
2022-11-13T05:08:08.017Z,0.00
2022-11-13T05:09:07.974Z,0.00
2022-11-13T05:10:07.958Z,0.00
2022-11-13T05:11:07.961Z,0.00
2022-11-13T05:12:07.949Z,0.00
2022-11-13T05:13:07.939Z,0.00
2022-11-13T05:14:07.959Z,0.00
2022-11-13T05:15:07.919Z,0.00
2022-11-13T05:16:07.910Z,0.00
2022-11-13T05:17:07.902Z,0.00
2022-11-13T05:18:07.962Z,0.00
2022-11-13T05:19:07.919Z,0.00
2022-11-13T05:20:07.878Z,0.00
2022-11-13T05:21:07.893Z,0.00
2022-11-13T05:22:07.866Z,0.00
2022-11-13T05:23:07.860Z,0.00
2022-11-13T05:24:07.888Z,0.00
2022-11-13T05:25:07.840Z,0.00
2022-11-13T05:26:07.829Z,0.00
2022-11-13T05:27:10.465Z,0.00
2022-11-13T05:28:08.812Z,0.00
2022-11-13T05:29:07.849Z,0.00
2022-11-13T05:30:07.805Z,0.00
2022-11-13T05:31:07.790Z,0.00
2022-11-13T05:32:07.782Z,0.00
2022-11-13T05:33:07.772Z,0.00
2022-11-13T05:34:07.861Z,0.00
2022-11-13T05:35:07.758Z,0.00
2022-11-13T05:36:07.745Z,0.00
2022-11-13T05:37:07.734Z,0.00
2022-11-13T05:38:07.727Z,0.00
2022-11-13T05:39:07.765Z,0.00
2022-11-13T05:40:07.710Z,0.00
2022-11-13T05:41:07.705Z,0.00
2022-11-13T05:42:07.692Z,0.00
2022-11-13T05:43:07.679Z,0.00
2022-11-13T05:44:07.722Z,0.00
2022-11-13T05:45:07.671Z,0.00
2022-11-13T05:46:07.655Z,0.00
2022-11-13T05:47:07.645Z,0.00
2022-11-13T05:48:07.651Z,0.00
2022-11-13T05:49:07.683Z,0.00
2022-11-13T05:50:07.690Z,0.00
2022-11-13T05:51:07.629Z,0.00
2022-11-13T05:52:07.612Z,0.00
2022-11-13T05:53:07.605Z,0.00
2022-11-13T05:54:07.596Z,0.00
2022-11-13T05:55:07.618Z,0.00
2022-11-13T05:56:07.579Z,0.00
2022-11-13T05:57:07.566Z,4.00
2022-11-13T05:58:07.563Z,0.00
2022-11-13T05:59:07.577Z,0.00
2022-11-13T06:00:07.547Z,4.00
2022-11-13T06:01:07.529Z,4.00
2022-11-13T06:02:08.581Z,4.00
2022-11-13T06:03:07.524Z,4.00
2022-11-13T06:04:07.561Z,4.00
2022-11-13T06:05:07.509Z,4.00
2022-11-13T06:06:07.563Z,4.00
2022-11-13T06:07:07.511Z,8.00
2022-11-13T06:08:07.487Z,8.00
2022-11-13T06:09:07.508Z,12.00
2022-11-13T06:10:07.470Z,12.00
2022-11-13T06:11:07.476Z,12.00
2022-11-13T06:12:07.456Z,12.00
2022-11-13T06:13:07.440Z,16.00
2022-11-13T06:14:07.461Z,24.00
2022-11-13T06:15:07.425Z,24.00
2022-11-13T06:16:07.422Z,28.00
2022-11-13T06:17:07.405Z,28.00
2022-11-13T06:18:07.404Z,32.00
2022-11-13T06:19:07.436Z,40.00
2022-11-13T06:20:07.387Z,48.00
2022-11-13T06:21:07.409Z,56.00
2022-11-13T06:22:07.452Z,60.00
2022-11-13T06:23:07.368Z,68.00
2022-11-13T06:24:07.381Z,80.00
2022-11-13T06:25:07.344Z,92.00
2022-11-13T06:26:07.352Z,96.00
2022-11-13T06:27:07.321Z,108.00
2022-11-13T06:28:07.332Z,120.00
2022-11-13T06:29:07.369Z,128.00
2022-11-13T06:30:07.296Z,136.00
2022-11-13T06:31:07.290Z,152.00
2022-11-13T06:32:07.281Z,160.00
2022-11-13T06:33:07.271Z,168.00
2022-11-13T06:34:07.519Z,180.00
2022-11-13T06:35:07.261Z,196.00
2022-11-13T06:36:07.270Z,212.00
2022-11-13T06:37:07.241Z,228.00
2022-11-13T06:38:07.300Z,240.00
2022-11-13T06:39:07.281Z,256.00
2022-11-13T06:40:07.212Z,276.00
2022-11-13T06:41:07.201Z,304.00
2022-11-13T06:42:08.209Z,328.00
2022-11-13T06:43:07.179Z,352.00
2022-11-13T06:44:07.224Z,368.00
2022-11-13T06:45:07.169Z,392.00
2022-11-13T06:46:07.165Z,416.00
2022-11-13T06:47:07.160Z,444.00
2022-11-13T06:48:07.147Z,468.00
2022-11-13T06:49:07.163Z,492.00
2022-11-13T06:50:07.124Z,508.00
2022-11-13T06:51:07.129Z,528.00
2022-11-13T06:52:07.122Z,552.00
2022-11-13T06:53:07.100Z,572.00
2022-11-13T06:54:08.194Z,596.00
2022-11-13T06:55:07.092Z,620.00
2022-11-13T06:56:07.071Z,648.00
2022-11-13T06:57:08.072Z,676.00
2022-11-13T06:58:07.069Z,668.00
2022-11-13T06:59:08.538Z,692.00
2022-11-13T07:00:08.055Z,716.00
2022-11-13T07:01:07.072Z,736.00
2022-11-13T07:02:07.048Z,760.00
2022-11-13T07:03:07.022Z,796.00
2022-11-13T07:04:07.082Z,828.00
2022-11-13T07:05:07.011Z,836.00
2022-11-13T07:06:07.000Z,848.00
2022-11-13T07:07:07.026Z,884.00
2022-11-13T07:08:06.991Z,936.00
2022-11-13T07:09:07.006Z,968.00
2022-11-13T07:10:06.965Z,992.00
2022-11-13T07:11:06.963Z,1040.00
2022-11-13T07:12:06.974Z,1104.00
2022-11-13T07:13:06.947Z,1136.00
2022-11-13T07:14:06.965Z,1188.00
2022-11-13T07:15:06.929Z,1240.00
2022-11-13T07:16:16.317Z,1296.00
2022-11-13T07:17:10.434Z,1320.00
2022-11-13T07:18:07.901Z,1320.00
2022-11-13T07:19:06.929Z,1344.00
2022-11-13T07:20:06.892Z,1404.00
2022-11-13T07:21:06.884Z,1504.00
2022-11-13T07:22:06.872Z,1540.00
2022-11-13T07:23:06.864Z,1592.00
2022-11-13T07:24:06.941Z,1668.00
2022-11-13T07:25:06.858Z,1760.00
2022-11-13T07:26:06.917Z,1832.00
2022-11-13T07:27:06.840Z,1856.00
2022-11-13T07:28:06.834Z,1896.00
2022-11-13T07:29:07.011Z,1884.00
2022-11-13T07:30:06.807Z,1888.00
2022-11-13T07:31:06.800Z,1944.00
2022-11-13T07:32:06.805Z,1932.00
2022-11-13T07:33:06.795Z,1988.00
2022-11-13T07:34:06.808Z,2084.00
2022-11-13T07:35:06.784Z,2168.00
2022-11-13T07:36:06.766Z,2316.00
2022-11-13T07:37:06.761Z,2340.00
2022-11-13T07:38:06.757Z,2376.00
2022-11-13T07:39:06.766Z,2452.00
2022-11-13T07:40:06.726Z,2600.00
2022-11-13T07:41:06.717Z,2660.00
2022-11-13T07:42:06.770Z,2832.00
2022-11-13T07:43:07.709Z,2784.00
2022-11-13T07:44:09.120Z,2752.00
2022-11-13T07:45:07.685Z,2912.00
2022-11-13T07:46:06.673Z,3080.00
2022-11-13T07:47:06.696Z,3092.00
2022-11-13T07:48:06.655Z,3228.00
2022-11-13T07:49:06.675Z,3488.00
2022-11-13T07:50:10.668Z,3612.00
2022-11-13T07:51:07.630Z,3616.00
2022-11-13T07:52:06.620Z,3604.00
2022-11-13T07:53:06.622Z,3860.00
2022-11-13T07:54:06.608Z,4044.00
2022-11-13T07:55:06.636Z,4260.00
2022-11-13T07:56:06.599Z,4588.00
2022-11-13T07:57:06.591Z,4472.00
2022-11-13T07:58:06.649Z,4312.00
2022-11-13T07:59:06.565Z,4496.00
2022-11-13T08:00:06.601Z,4576.00
2022-11-13T08:01:06.620Z,4656.00
2022-11-13T08:02:06.549Z,4872.00
2022-11-13T08:03:06.543Z,4532.00
2022-11-13T08:04:06.546Z,4916.00
2022-11-13T08:05:06.564Z,5012.00
2022-11-13T08:06:06.526Z,5428.00
2022-11-13T08:07:06.544Z,5852.00
2022-11-13T08:08:06.506Z,6408.00
2022-11-13T08:09:06.547Z,6912.00
2022-11-13T08:10:06.509Z,7576.00
2022-11-13T08:11:06.507Z,7456.00
2022-11-13T08:12:06.466Z,7440.00
2022-11-13T08:13:06.464Z,7304.00
2022-11-13T08:14:06.757Z,7032.00
2022-11-13T08:15:12.143Z,7080.00
2022-11-13T08:16:08.437Z,7580.00
2022-11-13T08:17:06.425Z,8212.00
2022-11-13T08:18:06.422Z,8544.00
2022-11-13T08:19:06.412Z,8128.00
2022-11-13T08:20:06.431Z,9048.00
2022-11-13T08:21:11.888Z,9684.00
2022-11-13T08:22:08.381Z,9268.00
2022-11-13T08:23:06.378Z,9688.00
2022-11-13T08:24:06.370Z,10308.00
2022-11-13T08:25:06.394Z,10400.00
2022-11-13T08:26:06.356Z,10796.00
2022-11-13T08:27:06.343Z,10700.00
2022-11-13T08:28:10.110Z,9508.00
2022-11-13T08:29:08.329Z,9196.00
2022-11-13T08:30:06.427Z,9392.00
2022-11-13T08:31:06.313Z,9088.00
2022-11-13T08:32:06.300Z,9948.00
2022-11-13T08:33:06.297Z,9480.00
2022-11-13T08:34:06.288Z,9424.00
2022-11-13T08:35:06.308Z,9448.00
2022-11-13T08:36:06.268Z,9752.00
2022-11-13T08:37:06.278Z,10288.00
2022-11-13T08:38:06.248Z,10928.00
2022-11-13T08:39:06.243Z,10888.00
2022-11-13T08:40:06.270Z,11696.00
2022-11-13T08:41:09.450Z,12364.00
2022-11-13T08:42:07.217Z,12612.00
2022-11-13T08:43:06.212Z,13084.00
2022-11-13T08:44:06.196Z,13616.00
2022-11-13T08:45:06.217Z,12484.00
2022-11-13T08:46:06.256Z,11800.00
2022-11-13T08:47:06.171Z,10872.00
2022-11-13T08:48:06.175Z,10752.00
2022-11-13T08:49:06.161Z,9780.00
2022-11-13T08:50:06.175Z,10136.00
2022-11-13T08:51:06.136Z,11664.00
2022-11-13T08:52:06.130Z,11608.00
2022-11-13T08:53:06.121Z,11848.00
2022-11-13T08:54:06.115Z,11072.00
2022-11-13T08:55:06.149Z,10776.00
2022-11-13T08:56:06.101Z,10800.00
2022-11-13T08:57:06.315Z,11096.00
2022-11-13T08:58:07.088Z,10736.00
2022-11-13T08:59:06.081Z,11260.00
2022-11-13T09:00:06.117Z,10956.00
2022-11-13T09:01:06.054Z,11236.00
2022-11-13T09:02:06.119Z,10860.00
2022-11-13T09:03:06.043Z,10788.00
2022-11-13T09:04:06.093Z,11044.00
2022-11-13T09:05:06.080Z,11324.00
2022-11-13T09:06:06.017Z,12088.00
2022-11-13T09:07:06.140Z,12792.00
2022-11-13T09:08:05.996Z,12912.00
2022-11-13T09:09:05.990Z,12912.00
2022-11-13T09:10:06.013Z,13508.00
2022-11-13T09:11:05.971Z,14120.00
2022-11-13T09:12:06.948Z,13724.00
2022-11-13T09:13:05.953Z,13956.00
2022-11-13T09:14:05.938Z,13596.00
2022-11-13T09:15:05.969Z,13884.00
2022-11-13T09:16:05.944Z,13292.00
2022-11-13T09:17:05.940Z,12984.00
2022-11-13T09:18:05.979Z,13524.00
2022-11-13T09:19:05.895Z,14052.00
2022-11-13T09:20:07.687Z,14656.00
2022-11-13T09:21:05.918Z,15768.00
2022-11-13T09:22:05.870Z,16576.00
2022-11-13T09:23:05.861Z,18112.00
2022-11-13T09:24:05.851Z,21248.00
2022-11-13T09:25:05.846Z,18880.00
2022-11-13T09:26:05.859Z,20160.00
2022-11-13T09:27:05.824Z,20032.00
2022-11-13T09:28:05.844Z,19840.00
2022-11-13T09:29:05.806Z,19648.00
2022-11-13T09:30:05.851Z,19456.00
2022-11-13T09:31:05.790Z,20736.00
2022-11-13T09:32:05.780Z,18112.00
2022-11-13T09:33:05.783Z,17664.00
2022-11-13T09:34:05.834Z,17184.00
2022-11-13T09:35:05.785Z,16864.00
2022-11-13T09:36:05.756Z,18016.00
2022-11-13T09:37:05.743Z,18720.00
2022-11-13T09:38:11.226Z,19136.00
2022-11-13T09:39:07.724Z,18560.00
2022-11-13T09:40:05.759Z,18912.00
2022-11-13T09:41:05.715Z,20224.00
2022-11-13T09:42:05.707Z,17760.00
2022-11-13T09:43:05.695Z,18592.00
2022-11-13T09:44:05.686Z,16864.00
2022-11-13T09:45:05.706Z,17216.00
2022-11-13T09:46:05.672Z,16704.00
2022-11-13T09:47:05.665Z,17184.00
2022-11-13T09:48:05.656Z,17184.00
2022-11-13T09:49:05.652Z,17280.00
2022-11-13T09:50:05.740Z,17568.00
2022-11-13T09:51:05.640Z,18112.00
2022-11-13T09:52:06.841Z,19456.00
2022-11-13T09:53:06.607Z,18336.00
2022-11-13T09:54:05.596Z,18944.00
2022-11-13T09:55:05.625Z,18368.00
2022-11-13T09:56:05.584Z,19296.00
2022-11-13T09:57:05.583Z,20544.00
2022-11-13T09:58:05.564Z,20928.00
2022-11-13T09:59:06.560Z,21376.00
2022-11-13T10:00:06.583Z,21152.00
2022-11-13T10:01:05.572Z,26720.00
2022-11-13T10:02:05.534Z,33824.00
2022-11-13T10:03:05.542Z,30720.00
2022-11-13T10:04:05.538Z,33760.00
2022-11-13T10:05:05.537Z,36288.00
2022-11-13T10:06:05.565Z,36960.00
2022-11-13T10:07:05.572Z,40032.00
2022-11-13T10:08:05.486Z,34976.00
2022-11-13T10:09:05.471Z,41984.00
2022-11-13T10:10:05.510Z,41408.00
2022-11-13T10:11:05.461Z,49920.00
2022-11-13T10:12:05.459Z,52128.00
2022-11-13T10:13:05.431Z,39808.00
2022-11-13T10:14:05.429Z,38784.00
2022-11-13T10:15:05.413Z,41248.00
2022-11-13T10:16:05.436Z,51072.00
2022-11-13T10:17:05.399Z,50208.00
2022-11-13T10:18:05.391Z,44864.00
2022-11-13T10:19:05.382Z,42688.00
2022-11-13T10:20:05.602Z,41568.00
2022-11-13T10:21:09.453Z,41312.00
2022-11-13T10:22:31.660Z,45024.00
2022-11-13T10:23:07.348Z,43040.00
2022-11-13T10:24:07.343Z,39072.00
2022-11-13T10:25:05.330Z,47328.00
2022-11-13T10:26:05.351Z,37696.00
2022-11-13T10:27:05.313Z,40096.00
2022-11-13T10:28:28.022Z,43872.00
2022-11-13T10:29:07.352Z,47264.00
2022-11-13T10:30:05.292Z,50560.00
2022-11-13T10:31:05.297Z,57088.00
2022-11-13T10:32:05.261Z,69024.00
2022-11-13T10:33:05.270Z,63648.00
2022-11-13T10:34:05.257Z,65696.00
2022-11-13T10:35:05.459Z,52640.00
2022-11-13T10:36:05.235Z,63200.00
2022-11-13T10:37:05.226Z,66816.00
2022-11-13T10:38:08.683Z,70752.00
2022-11-13T10:39:06.212Z,78816.00
2022-11-13T10:40:05.311Z,80928.00
2022-11-13T10:41:06.188Z,84864.00
2022-11-13T10:42:05.190Z,102400.00
2022-11-13T10:43:05.165Z,104096.00
2022-11-13T10:44:05.168Z,104192.00
2022-11-13T10:45:11.103Z,109216.00
2022-11-13T10:46:07.212Z,110080.00
2022-11-13T10:47:05.134Z,110048.00
2022-11-13T10:48:05.444Z,108992.00
2022-11-13T10:49:05.136Z,109472.00
2022-11-13T10:50:05.112Z,109248.00
2022-11-13T10:51:05.343Z,107168.00
2022-11-13T10:52:10.957Z,107072.00
2022-11-13T10:53:07.086Z,106816.00
2022-11-13T10:54:05.094Z,103680.00
2022-11-13T10:55:05.073Z,102144.00
2022-11-13T10:56:05.304Z,102336.00
2022-11-13T10:57:05.061Z,99072.00
2022-11-13T10:58:05.050Z,99328.00
2022-11-13T10:59:05.043Z,103712.00
2022-11-13T11:00:05.029Z,107072.00
2022-11-13T11:01:05.124Z,104160.00
2022-11-13T11:02:05.016Z,102080.00
2022-11-13T11:03:05.011Z,103808.00
2022-11-13T11:04:05.010Z,103936.00
2022-11-13T11:05:04.992Z,103936.00
2022-11-13T11:06:05.024Z,104288.00
2022-11-13T11:07:19.750Z,101888.00
2022-11-13T11:08:07.018Z,102240.00
2022-11-13T11:09:05.038Z,103392.00
2022-11-13T11:10:04.961Z,104928.00
2022-11-13T11:11:05.002Z,104736.00
2022-11-13T11:12:04.946Z,103808.00
2022-11-13T11:13:04.940Z,102528.00
2022-11-13T11:14:04.943Z,102240.00
2022-11-13T11:15:04.924Z,102112.00
2022-11-13T11:16:04.944Z,100992.00
2022-11-13T11:17:04.906Z,101696.00
2022-11-13T11:18:04.899Z,102400.00
2022-11-13T11:19:04.887Z,101184.00
2022-11-13T11:20:04.934Z,101344.00
2022-11-13T11:21:04.902Z,101376.00
2022-11-13T11:22:04.867Z,102976.00
2022-11-13T11:23:04.862Z,102464.00
2022-11-13T11:24:04.875Z,102208.00
2022-11-13T11:25:04.908Z,99968.00
2022-11-13T11:26:04.860Z,100224.00
2022-11-13T11:27:04.831Z,100064.00
2022-11-13T11:28:04.810Z,101344.00
2022-11-13T11:29:05.820Z,102304.00
2022-11-13T11:30:04.804Z,103008.00
2022-11-13T11:31:04.799Z,102304.00
2022-11-13T11:32:04.825Z,100800.00
2022-11-13T11:33:04.790Z,99872.00
2022-11-13T11:34:04.772Z,101504.00
2022-11-13T11:35:04.768Z,103040.00
2022-11-13T11:36:04.760Z,100960.00
2022-11-13T11:37:04.775Z,99616.00
2022-11-13T11:38:04.737Z,98144.00
2022-11-13T11:39:04.730Z,93632.00
2022-11-13T11:40:04.731Z,89952.00
2022-11-13T11:41:04.786Z,89472.00
2022-11-13T11:42:04.740Z,88864.00
2022-11-13T11:43:04.751Z,86208.00
2022-11-13T11:44:04.717Z,81184.00
2022-11-13T11:45:04.689Z,82944.00
2022-11-13T11:46:04.691Z,83872.00
2022-11-13T11:47:04.703Z,84672.00
2022-11-13T11:48:04.664Z,85600.00
2022-11-13T11:49:04.666Z,74112.00
2022-11-13T11:50:04.650Z,51488.00
2022-11-13T11:51:04.657Z,40192.00
2022-11-13T11:52:04.670Z,38720.00
2022-11-13T11:53:04.630Z,38240.00
2022-11-13T11:54:04.623Z,38016.00
2022-11-13T11:55:04.615Z,38016.00
2022-11-13T11:56:04.609Z,38016.00
2022-11-13T11:57:04.708Z,38048.00
2022-11-13T11:58:04.588Z,38240.00
2022-11-13T11:59:04.592Z,38656.00
2022-11-13T12:00:04.627Z,39008.00
2022-11-13T12:01:04.576Z,39680.00
2022-11-13T12:02:04.592Z,41088.00
2022-11-13T12:03:04.568Z,42304.00
2022-11-13T12:04:04.547Z,43008.00
2022-11-13T12:05:04.638Z,46880.00
2022-11-13T12:06:04.537Z,55200.00
2022-11-13T12:07:04.612Z,59840.00
2022-11-13T12:08:04.522Z,56096.00
2022-11-13T12:09:04.512Z,53728.00
2022-11-13T12:10:04.506Z,53568.00
2022-11-13T12:11:04.498Z,51872.00
2022-11-13T12:12:04.523Z,47232.00
2022-11-13T12:13:04.551Z,45632.00
2022-11-13T12:14:04.477Z,48576.00
2022-11-13T12:15:04.470Z,49536.00
2022-11-13T12:16:04.460Z,46144.00
2022-11-13T12:17:15.997Z,43552.00
2022-11-13T12:18:05.440Z,41536.00
2022-11-13T12:19:04.434Z,41728.00
2022-11-13T12:20:04.429Z,43392.00
2022-11-13T12:21:04.416Z,43840.00
2022-11-13T12:22:04.501Z,41856.00
2022-11-13T12:23:04.402Z,40480.00
2022-11-13T12:24:04.396Z,41440.00
2022-11-13T12:25:04.390Z,40032.00
2022-11-13T12:26:04.408Z,39072.00
2022-11-13T12:27:04.405Z,39264.00
2022-11-13T12:28:04.355Z,38368.00
2022-11-13T12:29:04.430Z,38144.00
2022-11-13T12:30:04.343Z,38528.00
2022-11-13T12:31:04.342Z,38912.00
2022-11-13T12:32:04.327Z,39232.00